Time;durP1;ratioP1;P1;durP2;ratioP2;P2;SDS_P1;SDS_P2;PMS_P1;PMS_P2;Temp;Humidity;BMP_temperature;BMP_pressure;BME280_temperature;BME280_humidity;BME280_pressure;Samples;Min_cycle;Max_cycle;Signal;HPM_P1;HPM_P2
2022/08/27 00:01:16;;;;;;;14.00;10.90;;;23.40;1.00;;;;;;5082944;28;21167;-57
2022/08/27 00:03:43;;;;;;;12.33;11.30;;;23.40;1.00;;;;;;5082226;28;20191;-54
2022/08/27 00:06:16;;;;;;;15.77;12.60;;;23.40;1.00;;;;;;5083411;28;20216;-54
2022/08/27 00:08:44;;;;;;;11.30;10.30;;;23.40;1.00;;;;;;5081420;28;20457;-55
2022/08/27 00:11:17;;;;;;;14.20;11.33;;;23.40;1.00;;;;;;5083667;28;20484;-56
2022/08/27 00:13:44;;;;;;;11.73;10.67;;;23.30;1.00;;;;;;5082432;28;22171;-55
2022/08/27 00:16:16;;;;;;;13.60;11.97;;;23.40;1.00;;;;;;5081658;28;20438;-55
2022/08/27 00:18:44;;;;;;;13.87;10.80;;;23.40;1.00;;;;;;5082981;28;20475;-55
2022/08/27 00:21:17;;;;;;;13.13;11.90;;;23.40;1.00;;;;;;5083481;28;20976;-55
2022/08/27 00:23:43;;;;;;;12.53;11.03;;;23.40;1.00;;;;;;5083190;28;20419;-55
2022/08/27 00:26:16;;;;;;;14.40;11.73;;;23.40;1.00;;;;;;5083287;28;20621;-55
2022/08/27 00:28:42;;;;;;;11.83;10.73;;;23.50;1.00;;;;;;5082957;28;20476;-56
2022/08/27 00:31:17;;;;;;;12.17;10.87;;;23.40;1.00;;;;;;5087548;28;20417;-56
2022/08/27 00:33:43;;;;;;;12.03;10.50;;;23.40;1.00;;;;;;5086509;28;20421;-56
2022/08/27 00:36:14;;;;;;;11.57;10.30;;;23.40;1.00;;;;;;5084773;28;20424;-56
2022/08/27 00:38:41;;;;;;;12.43;10.80;;;23.50;1.00;;;;;;5080517;28;20673;-56
2022/08/27 00:41:23;;;;;;;12.63;11.53;;;23.60;1.00;;;;;;5083638;28;20452;-55
2022/08/27 00:43:56;;;;;;;15.47;12.27;;;23.50;1.00;;;;;;5086345;28;20529;-55
2022/08/27 00:46:27;;;;;;;12.77;11.47;;;23.50;1.00;;;;;;5087496;28;20456;-55
2022/08/27 00:48:57;;;;;;;12.87;10.90;;;23.60;1.00;;;;;;5087940;28;20727;-54
2022/08/27 00:51:23;;;;;;;12.80;11.10;;;23.70;1.00;;;;;;5085634;28;20790;-54
2022/08/27 00:53:52;;;;;;;14.70;11.90;;;23.60;1.00;;;;;;5087130;28;20423;-56
2022/08/27 00:56:27;;;;;;;13.63;11.90;;;23.60;1.00;;;;;;5087830;28;20546;-56
2022/08/27 00:58:54;;;;;;;13.37;12.07;;;23.70;1.00;;;;;;5085280;28;20471;-56
2022/08/27 01:01:24;;;;;;;11.50;10.50;;;23.60;1.00;;;;;;5085105;28;20451;-56
2022/08/27 01:03:53;;;;;;;12.93;11.63;;;23.60;1.00;;;;;;5086237;28;20443;-56
2022/08/27 01:06:21;;;;;;;12.43;11.27;;;23.60;1.00;;;;;;5085527;28;20444;-55
2022/08/27 01:08:56;;;;;;;12.60;11.30;;;23.70;1.00;;;;;;5084836;28;21105;-54
2022/08/27 01:11:22;;;;;;;12.10;11.00;;;23.70;1.00;;;;;;5086753;28;20528;-55
2022/08/27 01:13:48;;;;;;;13.53;12.10;;;23.70;1.00;;;;;;5088479;28;20410;-56
2022/08/27 01:16:22;;;;;;;12.87;11.67;;;23.80;1.00;;;;;;5087350;28;20939;-56
2022/08/27 01:18:48;;;;;;;13.00;11.70;;;23.70;1.00;;;;;;5089344;28;20210;-55
2022/08/27 01:21:31;;;;;;;17.50;11.63;;;23.70;1.00;;;;;;5091389;28;21762;-57
2022/08/27 01:24:31;;;;;;;12.03;10.83;;;23.70;1.00;;;;;;5090771;28;20454;-55
2022/08/27 01:26:58;;;;;;;16.20;11.80;;;23.70;1.00;;;;;;5035942;28;20531;-55
2022/08/27 01:29:23;;;;;;;12.70;11.50;;;23.60;1.00;;;;;;5087756;28;20468;-55
2022/08/27 01:31:49;;;;;;;11.37;10.17;;;23.60;1.00;;;;;;5090536;28;20449;-54
2022/08/27 01:34:15;;;;;;;13.60;12.47;;;23.60;1.00;;;;;;5092103;28;20213;-55
2022/08/27 01:36:40;;;;;;;12.40;11.20;;;23.60;1.00;;;;;;5091082;28;20195;-55
2022/08/27 01:39:06;;;;;;;12.63;11.40;;;23.60;1.00;;;;;;5090912;28;20700;-55
2022/08/27 01:41:32;;;;;;;13.77;11.67;;;23.60;1.00;;;;;;5091121;28;20619;-57
2022/08/27 01:43:58;;;;;;;11.67;10.60;;;23.70;1.00;;;;;;5087182;28;20411;-57
2022/08/27 01:46:27;;;;;;;13.07;11.87;;;23.70;1.00;;;;;;5080426;28;20758;-57
2022/08/27 01:48:54;;;;;;;16.87;11.83;;;23.80;1.00;;;;;;5090336;28;20266;-55
2022/08/27 01:51:20;;;;;;;11.10;10.00;;;23.80;1.00;;;;;;5090776;28;20488;-56
2022/08/27 01:53:46;;;;;;;13.20;10.73;;;23.70;1.00;;;;;;5091624;28;20447;-55
2022/08/27 01:56:12;;;;;;;14.07;11.70;;;23.70;1.00;;;;;;5089807;28;20411;-55
2022/08/27 01:58:37;;;;;;;11.20;10.00;;;23.70;1.00;;;;;;5090624;28;20273;-55
2022/08/27 02:01:12;;;;;;;12.30;11.13;;;23.70;1.00;;;;;;5086710;28;20190;-54
2022/08/27 02:03:39;;;;;;;11.60;10.50;;;23.70;1.00;;;;;;5090123;28;20186;-56
2022/08/27 02:06:28;;;;;;;12.17;11.03;;;23.70;1.00;;;;;;5089744;28;20496;-56
2022/08/27 02:08:54;;;;;;;13.40;12.20;;;23.70;1.00;;;;;;5076044;28;20898;-55
2022/08/27 02:11:19;;;;;;;12.50;10.60;;;23.60;1.00;;;;;;5091605;28;20487;-54
2022/08/27 02:13:45;;;;;;;13.40;11.83;;;23.50;1.00;;;;;;5089176;28;20183;-55
2022/08/27 02:16:11;;;;;;;13.33;12.00;;;23.40;1.00;;;;;;5090207;28;20201;-57
2022/08/27 02:18:38;;;;;;;13.17;11.83;;;23.50;1.00;;;;;;5089322;28;20186;-56
2022/08/27 02:21:04;;;;;;;11.67;10.33;;;23.50;1.00;;;;;;5072246;28;20465;-55
2022/08/27 02:23:38;;;;;;;14.00;12.50;;;23.60;1.00;;;;;;5089122;28;20454;-55
2022/08/27 02:26:10;;;;;;;14.43;11.37;;;23.60;1.00;;;;;;5088388;28;21132;-54
2022/08/27 02:28:35;;;;;;;15.10;12.23;;;23.70;1.00;;;;;;5088011;28;21094;-55
2022/08/27 02:31:01;;;;;;;13.63;12.30;;;23.70;1.00;;;;;;5084859;28;20468;-55
2022/08/27 02:33:26;;;;;;;11.80;10.63;;;23.70;1.00;;;;;;5090332;28;20218;-54
2022/08/27 02:35:52;;;;;;;12.17;11.00;;;23.60;1.00;;;;;;5090728;28;20193;-54
2022/08/27 02:38:19;;;;;;;13.33;12.13;;;23.70;1.00;;;;;;5088464;28;20663;-55
2022/08/27 02:40:45;;;;;;;13.80;11.80;;;23.50;1.00;;;;;;5089806;28;20641;-55
2022/08/27 02:43:10;;;;;;;14.10;12.90;;;23.50;1.00;;;;;;5086775;28;20422;-56
2022/08/27 02:45:36;;;;;;;19.57;12.10;;;23.50;1.00;;;;;;5089757;28;20439;-56
2022/08/27 02:48:06;;;;;;;18.37;13.20;;;23.50;1.00;;;;;;5089417;28;20202;-56
2022/08/27 02:50:32;;;;;;;15.00;13.50;;;23.50;1.00;;;;;;5089327;28;20183;-58
2022/08/27 02:53:03;;;;;;;13.93;12.53;;;23.50;1.00;;;;;;5090214;28;20967;-58
2022/08/27 02:55:29;;;;;;;14.57;13.20;;;23.50;1.00;;;;;;5086904;28;20416;-55
2022/08/27 02:57:55;;;;;;;15.40;13.27;;;23.50;1.00;;;;;;5090301;28;20768;-56
2022/08/27 03:00:23;;;;;;;21.00;14.20;;;23.50;1.00;;;;;;5087616;28;20847;-55
2022/08/27 03:02:49;;;;;;;16.13;14.53;;;23.50;1.00;;;;;;5086530;28;20829;-56
2022/08/27 03:05:17;;;;;;;18.03;13.50;;;23.40;1.00;;;;;;5086885;28;20423;-57
2022/08/27 03:07:43;;;;;;;14.93;13.53;;;23.50;1.00;;;;;;5090122;28;20210;-57
2022/08/27 03:10:10;;;;;;;18.53;14.17;;;23.40;1.00;;;;;;5089494;28;20502;-55
2022/08/27 03:12:36;;;;;;;15.87;13.70;;;23.40;1.00;;;;;;5090026;28;20415;-55
2022/08/27 03:15:04;;;;;;;14.00;12.40;;;23.30;1.00;;;;;;5088470;28;20493;-56
2022/08/27 03:20:14;;;;;;;8.80;8.00;;;23.40;1.00;;;;;;5088812;28;20898;-56
2022/08/27 03:22:39;;;;;;;10.47;8.50;;;23.60;1.00;;;;;;5088421;28;20440;-57
2022/08/27 03:25:05;;;;;;;7.73;7.00;;;23.40;1.00;;;;;;5088379;28;20636;-57
2022/08/27 03:27:31;;;;;;;7.50;6.80;;;23.50;1.00;;;;;;5088735;28;20214;-57
2022/08/27 03:29:57;;;;;;;6.70;6.10;;;23.30;1.00;;;;;;5088289;28;20416;-57
2022/08/27 03:32:23;;;;;;;7.17;6.27;;;23.40;1.00;;;;;;5085225;28;20422;-56
2022/08/27 03:34:48;;;;;;;7.83;6.10;;;23.30;1.00;;;;;;5084877;28;20533;-56
2022/08/27 03:37:14;;;;;;;11.30;6.77;;;23.30;1.00;;;;;;5088344;28;20183;-57
2022/08/27 03:39:40;;;;;;;6.63;5.93;;;23.30;1.00;;;;;;5088547;28;20226;-58
2022/08/27 03:42:05;;;;;;;7.50;6.80;;;23.20;1.00;;;;;;5084831;28;20451;-57
2022/08/27 03:44:31;;;;;;;7.70;6.43;;;23.20;1.00;;;;;;5085207;28;20285;-57
2022/08/27 03:46:58;;;;;;;6.97;6.27;;;23.30;1.00;;;;;;5081395;28;20207;-57
2022/08/27 03:49:24;;;;;;;9.23;8.30;;;23.20;1.00;;;;;;5086857;28;20459;-55
2022/08/27 03:51:51;;;;;;;8.60;7.77;;;23.20;1.00;;;;;;5086646;28;20439;-56
2022/08/27 03:54:17;;;;;;;9.30;8.17;;;23.10;1.00;;;;;;5088881;28;20186;-57
2022/08/27 03:56:43;;;;;;;9.30;8.40;;;23.20;1.00;;;;;;5087046;28;20475;-56
2022/08/27 03:59:09;;;;;;;9.13;8.13;;;23.10;1.00;;;;;;5085178;28;20487;-56
2022/08/27 04:01:35;;;;;;;10.90;8.27;;;23.10;1.00;;;;;;5087124;28;20460;-56
2022/08/27 04:04:00;;;;;;;9.37;7.93;;;23.10;1.00;;;;;;5085916;28;20274;-57
2022/08/27 04:06:27;;;;;;;11.00;8.30;;;23.10;1.00;;;;;;5086759;28;20198;-57
2022/08/27 04:08:52;;;;;;;9.87;8.87;;;23.20;1.00;;;;;;5087917;28;20210;-57
2022/08/27 04:11:18;;;;;;;11.40;9.90;;;23.30;1.00;;;;;;5088518;28;20415;-57
2022/08/27 04:13:43;;;;;;;10.73;8.87;;;23.30;1.00;;;;;;5086548;28;20262;-55
2022/08/27 04:16:19;;;;;;;12.00;10.80;;;23.30;1.00;;;;;;5086819;28;20191;-56
2022/08/27 04:18:45;;;;;;;10.80;9.70;;;23.40;1.00;;;;;;5089010;28;20186;-56
2022/08/27 04:21:16;;;;;;;22.80;20.40;;;23.30;1.00;;;;;;5089139;28;20756;-58
2022/08/27 04:23:42;;;;;;;13.40;12.07;;;23.40;1.00;;;;;;5089192;28;20187;-56
2022/08/27 04:26:23;;;;;;;18.10;14.37;;;23.40;1.00;;;;;;5087000;28;20448;-55
2022/08/27 04:28:48;;;;;;;14.97;13.37;;;23.40;1.00;;;;;;5085488;28;20464;-56
2022/08/27 04:31:15;;;;;;;13.93;12.27;;;23.30;1.00;;;;;;5087359;28;20483;-57
2022/08/27 04:33:41;;;;;;;13.40;11.37;;;23.40;1.00;;;;;;5087280;28;20191;-57
2022/08/27 04:36:26;;;;;;;14.40;12.40;;;23.30;1.00;;;;;;5088680;28;20584;-56
2022/08/27 04:38:51;;;;;;;17.03;14.50;;;23.30;1.00;;;;;;5088221;28;20271;-56
2022/08/27 04:41:26;;;;;;;23.53;15.33;;;23.30;1.00;;;;;;5085783;28;20457;-56
2022/08/27 04:43:57;;;;;;;20.67;16.83;;;23.20;1.00;;;;;;5083285;28;20197;-56
2022/08/27 04:46:24;;;;;;;19.87;16.07;;;23.20;1.00;;;;;;5088401;28;20444;-57
2022/08/27 04:48:51;;;;;;;20.70;18.37;;;23.10;1.00;;;;;;5086107;28;21339;-57
2022/08/27 04:51:30;;;;;;;22.47;20.07;;;23.10;1.00;;;;;;5089416;28;20444;-57
2022/08/27 04:53:56;;;;;;;22.30;18.43;;;23.10;1.00;;;;;;5087925;28;20502;-57
2022/08/27 04:56:25;;;;;;;29.20;21.80;;;23.20;1.00;;;;;;5089971;28;20512;-57
2022/08/27 04:58:51;;;;;;;26.97;20.87;;;23.10;1.00;;;;;;5091371;28;20436;-57
2022/08/27 05:01:25;;;;;;;26.60;21.67;;;23.10;1.00;;;;;;5086420;28;20422;-55
2022/08/27 05:03:52;;;;;;;26.87;22.70;;;23.10;1.00;;;;;;5084889;28;20470;-56
2022/08/27 05:06:24;;;;;;;28.63;23.67;;;23.10;1.00;;;;;;5087468;28;20718;-56
2022/08/27 05:08:51;;;;;;;30.73;22.83;;;23.10;1.00;;;;;;5086148;28;20475;-57
2022/08/27 05:11:25;;;;;;;25.20;21.40;;;23.00;1.00;;;;;;5086212;28;20510;-55
2022/08/27 05:13:51;;;;;;;28.53;21.00;;;23.00;1.00;;;;;;5085121;28;20915;-57
2022/08/27 05:16:22;;;;;;;23.60;21.10;;;23.00;1.00;;;;;;5090171;28;20419;-57
2022/08/27 05:18:49;;;;;;;25.37;19.80;;;23.10;1.00;;;;;;5088055;28;20244;-57
2022/08/27 05:21:30;;;;;;;22.77;17.70;;;23.00;1.00;;;;;;5084946;28;20470;-56
2022/08/27 05:23:58;;;;;;;20.03;17.60;;;23.10;1.00;;;;;;5083777;28;20436;-56
2022/08/27 05:26:27;;;;;;;23.07;18.37;;;23.10;1.00;;;;;;5086703;28;20430;-57
2022/08/27 05:28:53;;;;;;;22.73;19.10;;;23.10;1.00;;;;;;5085866;28;20442;-57
2022/08/27 05:31:32;;;;;;;20.97;18.53;;;23.20;1.00;;;;;;5088234;28;20421;-57
2022/08/27 05:33:59;;;;;;;20.40;18.30;;;23.10;1.00;;;;;;5090433;28;20422;-56
2022/08/27 05:36:30;;;;;;;20.37;18.27;;;23.20;1.00;;;;;;5091987;28;20440;-58
2022/08/27 05:38:58;;;;;;;24.43;20.40;;;23.30;1.00;;;;;;5090999;28;20479;-57
2022/08/27 05:41:29;;;;;;;22.33;19.90;;;23.20;1.00;;;;;;5091525;28;20926;-57
2022/08/27 05:43:58;;;;;;;23.13;19.77;;;23.30;1.00;;;;;;5090335;28;20950;-56
2022/08/27 05:46:25;;;;;;;24.33;21.50;;;23.30;1.00;;;;;;5091492;28;20415;-56
2022/08/27 05:48:51;;;;;;;22.50;20.10;;;23.30;1.00;;;;;;5091902;28;20457;-56
2022/08/27 05:51:31;;;;;;;20.90;18.70;;;23.10;1.00;;;;;;5092246;28;20510;-56
2022/08/27 05:54:04;;;;;;;21.17;19.10;;;23.00;1.00;;;;;;5092113;28;20423;-55
2022/08/27 05:56:32;;;;;;;20.07;18.07;;;23.00;1.00;;;;;;5090362;28;20815;-56
2022/08/27 06:01:48;;;;;;;21.53;19.33;;;22.80;1.00;;;;;;5091530;28;20860;-56
2022/08/27 06:04:14;;;;;;;19.90;17.80;;;22.70;1.00;;;;;;5089466;28;20502;-55
2022/08/27 06:06:42;;;;;;;18.47;16.50;;;22.70;1.00;;;;;;5091311;28;20407;-56
2022/08/27 06:09:10;;;;;;;19.07;17.07;;;22.60;1.00;;;;;;5091207;28;20431;-56
2022/08/27 06:11:36;;;;;;;18.07;16.40;;;22.60;1.00;;;;;;5088911;28;20931;-56
2022/08/27 06:14:02;;;;;;;18.40;16.53;;;22.50;1.00;;;;;;5074070;28;20467;-55
2022/08/27 06:16:43;;;;;;;18.70;16.93;;;22.60;1.00;;;;;;5087905;28;20851;-56
2022/08/27 06:19:12;;;;;;;19.00;16.63;;;22.60;1.00;;;;;;5091175;28;20423;-56
2022/08/27 06:21:39;;;;;;;20.30;17.50;;;22.60;1.00;;;;;;5090323;28;20889;-56
2022/08/27 06:24:06;;;;;;;19.67;17.73;;;22.60;1.00;;;;;;5090420;28;20452;-54
2022/08/27 06:26:31;;;;;;;18.87;16.87;;;22.50;1.00;;;;;;5090853;28;20807;-54
2022/08/27 06:29:05;;;;;;;19.07;17.17;;;22.50;1.00;;;;;;5091023;28;20472;-55
2022/08/27 06:31:31;;;;;;;19.20;17.23;;;22.50;1.00;;;;;;5090732;28;20672;-56
2022/08/27 06:34:00;;;;;;;17.70;15.30;;;22.60;1.00;;;;;;5090910;28;20437;-56
2022/08/27 06:36:26;;;;;;;20.10;16.70;;;22.50;1.00;;;;;;5089675;28;20432;-55
2022/08/27 06:38:53;;;;;;;18.20;16.30;;;22.50;1.00;;;;;;5091205;28;21030;-56
2022/08/27 06:41:25;;;;;;;19.30;17.50;;;22.50;1.00;;;;;;5090763;28;20444;-57
2022/08/27 06:43:51;;;;;;;19.23;17.20;;;22.60;1.00;;;;;;5091748;28;20445;-55
2022/08/27 06:46:24;;;;;;;18.60;16.63;;;22.50;1.00;;;;;;5090150;28;20477;-56
2022/08/27 06:48:54;;;;;;;17.73;15.63;;;22.60;1.00;;;;;;5090218;28;20442;-56
2022/08/27 06:51:29;;;;;;;15.70;14.10;;;22.60;1.00;;;;;;5090253;28;20950;-57
2022/08/27 06:53:59;;;;;;;15.93;14.33;;;22.60;1.00;;;;;;5091005;28;20916;-56
2022/08/27 06:56:25;;;;;;;16.33;14.77;;;22.70;1.00;;;;;;5091268;28;20469;-56
2022/08/27 06:58:56;;;;;;;15.93;13.80;;;22.70;1.00;;;;;;5092214;28;20403;-57
2022/08/27 07:01:32;;;;;;;15.83;14.23;;;23.00;1.00;;;;;;5088993;28;20448;-56
2022/08/27 07:04:01;;;;;;;14.67;13.40;;;22.90;1.00;;;;;;5091682;28;20510;-56
2022/08/27 07:06:28;;;;;;;14.80;13.43;;;22.90;1.00;;;;;;5089053;28;20438;-57
2022/08/27 07:08:55;;;;;;;13.90;12.60;;;23.00;1.00;;;;;;5090708;28;20439;-56
2022/08/27 07:11:37;;;;;;;15.23;13.83;;;23.00;1.00;;;;;;5088504;28;20506;-54
2022/08/27 07:14:04;;;;;;;15.13;13.73;;;22.80;1.00;;;;;;5090567;28;20531;-54
2022/08/27 07:16:42;;;;;;;16.20;14.30;;;22.70;1.00;;;;;;5089329;28;20924;-57
2022/08/27 07:19:08;;;;;;;16.27;14.20;;;22.70;1.00;;;;;;5087827;28;20825;-56
2022/08/27 07:21:34;;;;;;;14.73;13.33;;;22.80;1.00;;;;;;5070730;28;20456;-57
2022/08/27 07:24:06;;;;;;;15.50;13.97;;;22.70;1.00;;;;;;5091272;28;20636;-55
2022/08/27 07:26:35;;;;;;;16.37;14.87;;;22.80;1.00;;;;;;5089914;28;20487;-57
2022/08/27 07:29:02;;;;;;;15.20;13.80;;;22.60;1.00;;;;;;5090651;28;20511;-56
2022/08/27 07:31:28;;;;;;;17.43;14.73;;;22.70;1.00;;;;;;5089340;28;20714;-56
2022/08/27 07:33:54;;;;;;;15.90;14.40;;;22.80;1.00;;;;;;5089883;28;20440;-55
2022/08/27 07:36:27;;;;;;;17.63;15.93;;;22.80;1.00;;;;;;5089475;28;20655;-57
2022/08/27 07:38:52;;;;;;;17.07;15.40;;;22.70;1.00;;;;;;5089252;28;20263;-57
2022/08/27 07:41:31;;;;;;;17.57;15.87;;;22.70;1.00;;;;;;5089878;28;20448;-56
2022/08/27 07:46:43;;;;;;;18.70;16.90;;;22.60;1.00;;;;;;5088883;28;20449;-56
2022/08/27 07:49:10;;;;;;;16.60;15.10;;;22.60;1.00;;;;;;5089329;28;20467;-56
2022/08/27 07:51:36;;;;;;;17.47;15.67;;;22.50;1.00;;;;;;5089388;28;20912;-54
2022/08/27 07:54:02;;;;;;;17.13;15.50;;;22.60;1.00;;;;;;5088710;28;20411;-56
2022/08/27 07:56:28;;;;;;;17.00;15.50;;;22.60;1.00;;;;;;5088507;28;20419;-57
2022/08/27 07:58:53;;;;;;;18.27;16.53;;;22.60;1.00;;;;;;5087546;28;20510;-56
2022/08/27 08:01:26;;;;;;;19.07;17.17;;;22.50;1.00;;;;;;5085519;28;20232;-56
2022/08/27 08:03:52;;;;;;;18.93;17.03;;;22.50;1.00;;;;;;5084712;28;20187;-57
2022/08/27 08:06:27;;;;;;;18.87;17.17;;;22.60;1.00;;;;;;5088085;28;20481;-56
2022/08/27 08:08:52;;;;;;;18.40;16.50;;;22.60;1.00;;;;;;5071458;28;20213;-57
2022/08/27 08:11:32;;;;;;;18.13;16.17;;;22.70;1.00;;;;;;5090117;28;20901;-56
2022/08/27 08:13:58;;;;;;;18.67;16.97;;;22.70;1.00;;;;;;5086716;28;20190;-56
2022/08/27 08:16:27;;;;;;;19.27;17.47;;;22.70;1.00;;;;;;5089806;28;20412;-56
2022/08/27 08:18:53;;;;;;;19.63;17.30;;;22.70;1.00;;;;;;5088490;28;20888;-56
2022/08/27 08:21:25;;;;;;;19.03;16.90;;;22.60;1.00;;;;;;5086915;28;20455;-55
2022/08/27 08:23:50;;;;;;;19.10;17.10;;;22.60;1.00;;;;;;5088938;28;20187;-56
2022/08/27 08:26:23;;;;;;;18.80;16.90;;;22.60;1.00;;;;;;5089577;28;20476;-56
2022/08/27 08:28:49;;;;;;;18.53;16.67;;;22.70;1.00;;;;;;5087778;28;20260;-56
2022/08/27 08:31:22;;;;;;;17.30;15.57;;;22.70;1.00;;;;;;5089928;28;20445;-57
2022/08/27 08:33:48;;;;;;;18.23;16.30;;;22.70;1.00;;;;;;5088440;28;20227;-57
2022/08/27 08:36:26;;;;;;;17.17;15.50;;;22.80;1.00;;;;;;5089165;28;20415;-56
2022/08/27 08:38:53;;;;;;;16.43;14.83;;;22.80;1.00;;;;;;5086889;28;20226;-56
2022/08/27 08:41:30;;;;;;;15.43;13.83;;;22.70;1.00;;;;;;5086991;28;20920;-56
2022/08/27 08:43:57;;;;;;;15.63;14.03;;;22.80;1.00;;;;;;5088517;28;20429;-55
2022/08/27 08:46:45;;;;;;;15.40;13.77;;;22.80;1.00;;;;;;5089769;28;20851;-56
2022/08/27 08:49:31;;;;;;;15.40;13.77;;;22.70;1.00;;;;;;5088082;28;20461;-57
2022/08/27 08:52:09;;;;;;;14.53;13.03;;;22.70;1.00;;;;;;5037273;28;20472;-56
2022/08/27 08:54:37;;;;;;;13.83;12.43;;;22.80;1.00;;;;;;5088799;28;20544;-56
2022/08/27 08:57:15;;;;;;;14.63;13.23;;;22.70;1.00;;;;;;5089025;28;20997;-56
2022/08/27 08:59:46;;;;;;;14.10;12.80;;;22.70;1.00;;;;;;5086714;28;20930;-56
2022/08/27 09:02:14;;;;;;;15.30;13.80;;;22.80;1.00;;;;;;5087718;28;20442;-57
2022/08/27 09:04:41;;;;;;;13.97;12.40;;;22.80;1.00;;;;;;5084941;28;20763;-56
2022/08/27 09:07:33;;;;;;;13.73;12.37;;;22.70;1.00;;;;;;5086743;28;20443;-56
2022/08/27 09:10:12;;;;;;;13.87;12.33;;;22.70;1.00;;;;;;5067548;28;20459;-56
2022/08/27 09:12:38;;;;;;;14.13;12.93;;;22.70;1.00;;;;;;5089587;28;20436;-55
2022/08/27 09:15:11;;;;;;;11.97;10.87;;;22.70;1.00;;;;;;5070610;28;20427;-57
2022/08/27 09:17:39;;;;;;;12.73;11.43;;;22.70;1.00;;;;;;5070273;28;20239;-56
2022/08/27 09:20:06;;;;;;;11.70;10.60;;;22.70;1.00;;;;;;5070545;28;20467;-56
2022/08/27 09:22:46;;;;;;;11.67;10.57;;;22.60;1.00;;;;;;5068810;28;20444;-56
2022/08/27 09:25:23;;;;;;;12.73;10.53;;;22.70;1.00;;;;;;5084696;28;20440;-57
2022/08/27 09:27:52;;;;;;;10.10;9.17;;;22.40;1.00;;;;;;5088218;28;20493;-58
2022/08/27 09:30:22;;;;;;;11.80;10.70;;;22.40;1.00;;;;;;5084995;28;20442;-56
2022/08/27 09:32:56;;;;;;;11.57;10.33;;;22.50;1.00;;;;;;5087914;28;20456;-57
2022/08/27 09:35:25;;;;;;;10.67;9.53;;;22.50;1.00;;;;;;5089232;28;20410;-56
2022/08/27 09:37:53;;;;;;;10.83;9.73;;;22.60;1.00;;;;;;5089489;28;20754;-57
2022/08/27 09:40:31;;;;;;;10.33;8.90;;;22.70;1.00;;;;;;5090009;28;20463;-56
2022/08/27 09:43:06;;;;;;;10.17;9.17;;;22.70;1.00;;;;;;5093134;28;20447;-57
2022/08/27 09:45:33;;;;;;;10.27;9.27;;;22.80;1.00;;;;;;5092647;28;20509;-57
2022/08/27 09:48:19;;;;;;;8.97;7.90;;;22.90;1.00;;;;;;5092971;28;20762;-57
2022/08/27 09:50:52;;;;;;;9.73;8.77;;;23.00;1.00;;;;;;5092713;28;20494;-55
2022/08/27 09:53:24;;;;;;;9.30;8.50;;;22.90;1.00;;;;;;5092508;28;20922;-56
2022/08/27 09:55:57;;;;;;;9.37;8.43;;;22.70;1.00;;;;;;5092131;28;20475;-57
2022/08/27 09:58:27;;;;;;;9.00;8.20;;;22.80;1.00;;;;;;5091764;28;20464;-57
2022/08/27 10:01:05;;;;;;;8.70;7.90;;;22.80;1.00;;;;;;5090661;28;20459;-55
2022/08/27 10:03:31;;;;;;;8.97;8.07;;;22.80;1.00;;;;;;5089843;28;20456;-57
2022/08/27 10:05:57;;;;;;;8.37;7.67;;;22.80;1.00;;;;;;5092453;28;20407;-56
2022/08/27 10:08:47;;;;;;;8.13;7.33;;;22.70;1.00;;;;;;5074580;28;20222;-58
2022/08/27 10:11:34;;;;;;;8.17;7.33;;;22.80;1.00;;;;;;5089310;28;20419;-58
2022/08/27 10:14:14;;;;;;;7.70;6.90;;;23.00;1.00;;;;;;5088869;28;20436;-58
2022/08/27 10:16:54;;;;;;;6.53;6.03;;;23.00;1.00;;;;;;5091534;28;20411;-57
2022/08/27 10:19:34;;;;;;;8.20;7.40;;;23.00;1.00;;;;;;5092523;28;20750;-57
2022/08/27 10:22:04;;;;;;;7.40;6.27;;;23.00;1.00;;;;;;5090306;28;20451;-57
2022/08/27 10:24:51;;;;;;;6.83;6.23;;;23.10;1.00;;;;;;5084235;28;20447;-56
2022/08/27 10:27:33;;;;;;;6.47;5.87;;;23.20;1.00;;;;;;5087573;28;20448;-56
2022/08/27 10:30:14;;;;;;;5.37;4.87;;;23.40;1.00;;;;;;5087553;28;20430;-57
2022/08/27 10:32:53;;;;;;;5.37;4.93;;;23.60;1.00;;;;;;5089427;28;20427;-56
2022/08/27 10:35:27;;;;;;;3.73;3.43;;;23.60;1.00;;;;;;5091975;28;20436;-55
2022/08/27 10:37:55;;;;;;;6.00;3.60;;;23.60;1.00;;;;;;5089244;28;20434;-58
2022/08/27 10:40:35;;;;;;;3.67;3.20;;;23.60;1.00;;;;;;5091633;28;21001;-56
2022/08/27 10:43:19;;;;;;;2.73;2.53;;;23.80;1.00;;;;;;5090474;28;20478;-57
2022/08/27 10:46:25;;;;;;;3.10;2.90;;;24.00;1.00;;;;;;5090428;28;20446;-56
2022/08/27 10:49:03;;;;;;;3.80;3.47;;;24.20;1.00;;;;;;5091194;28;20881;-56
2022/08/27 10:51:51;;;;;;;4.23;3.87;;;24.10;1.00;;;;;;5087992;28;20937;-56
2022/08/27 10:54:41;;;;;;;3.33;3.03;;;24.00;1.00;;;;;;5090793;28;20437;-57
2022/08/27 10:57:39;;;;;;;3.40;3.00;;;24.00;1.00;;;;;;5089209;28;20549;-55
2022/08/27 11:00:20;;;;;;;2.73;2.53;;;23.80;1.00;;;;;;5090817;28;20443;-57
2022/08/27 11:02:54;;;;;;;2.00;1.80;;;23.80;1.00;;;;;;5089610;28;20950;-57
2022/08/27 11:05:24;;;;;;;2.90;2.03;;;23.80;1.00;;;;;;5088935;28;20441;-57
2022/08/27 11:07:55;;;;;;;2.30;2.07;;;23.80;1.00;;;;;;5090266;28;20549;-58
2022/08/27 11:10:34;;;;;;;2.50;2.30;;;23.80;1.00;;;;;;5091014;28;20420;-57
2022/08/27 11:13:07;;;;;;;3.90;2.80;;;23.70;1.00;;;;;;5088095;28;20555;-56
2022/08/27 11:15:36;;;;;;;5.73;2.33;;;23.70;1.00;;;;;;5090251;28;20419;-57
2022/08/27 11:18:17;;;;;;;2.53;2.33;;;23.60;1.00;;;;;;5086735;28;20519;-58
2022/08/27 11:20:55;;;;;;;2.67;2.40;;;23.70;1.00;;;;;;5090125;28;20433;-56
2022/08/27 11:23:44;;;;;;;2.93;2.40;;;23.50;1.00;;;;;;5087782;28;20416;-57
2022/08/27 11:26:40;;;;;;;2.80;2.60;;;23.40;1.00;;;;;;5073012;28;20423;-57
2022/08/27 11:29:19;;;;;;;3.07;2.77;;;23.30;1.00;;;;;;5088977;28;20435;-57
2022/08/27 11:32:15;;;;;;;3.50;3.20;;;23.10;1.00;;;;;;5082161;28;20511;-57
2022/08/27 11:34:55;;;;;;;3.83;3.47;;;23.10;1.00;;;;;;5089291;28;20531;-57
2022/08/27 11:37:59;;;;;;;3.00;2.80;;;23.10;1.00;;;;;;5089862;28;20440;-57
2022/08/27 11:40:43;;;;;;;3.80;3.50;;;23.10;1.00;;;;;;5064065;28;20930;-57
2022/08/27 11:43:32;;;;;;;4.00;3.70;;;23.10;1.00;;;;;;5089763;28;20444;-56
2022/08/27 11:46:00;;;;;;;7.40;6.70;;;22.90;1.00;;;;;;5083818;28;20476;-57
2022/08/27 11:48:39;;;;;;;3.93;3.63;;;22.90;1.00;;;;;;5088357;28;20460;-57
2022/08/27 11:51:25;;;;;;;7.60;6.90;;;22.70;1.00;;;;;;5088484;28;20746;-56
2022/08/27 11:54:00;;;;;;;4.97;4.57;;;22.90;1.00;;;;;;5087981;28;20411;-57
2022/08/27 11:56:29;;;;;;;4.70;4.30;;;23.00;1.00;;;;;;5088141;28;20490;-57
2022/08/27 11:58:56;;;;;;;5.23;4.83;;;23.00;1.00;;;;;;5088513;28;20433;-56
2022/08/27 12:01:26;;;;;;;4.30;4.00;;;23.20;1.00;;;;;;5090360;28;20548;-57
2022/08/27 12:04:18;;;;;;;4.30;3.90;;;23.40;1.00;;;;;;5088857;28;20884;-57
2022/08/27 12:06:49;;;;;;;5.03;4.63;;;23.70;1.00;;;;;;5089654;28;20411;-57
2022/08/27 12:09:21;;;;;;;4.87;4.47;;;23.90;1.00;;;;;;5088942;28;20940;-56
2022/08/27 12:12:13;;;;;;;5.13;4.60;;;24.00;1.00;;;;;;5070887;28;20440;-57
2022/08/27 12:14:48;;;;;;;5.80;5.30;;;23.90;1.00;;;;;;5089472;28;20895;-57
2022/08/27 12:17:31;;;;;;;5.80;5.30;;;23.90;1.00;;;;;;5089792;28;20440;-56
2022/08/27 12:20:17;;;;;;;5.90;5.30;;;23.90;1.00;;;;;;5084772;28;20818;-56
2022/08/27 12:25:35;;;;;;;6.30;5.80;;;24.10;1.00;;;;;;5088203;28;20447;-57
2022/08/27 12:28:04;;;;;;;6.57;5.90;;;24.20;1.00;;;;;;5090264;28;20455;-56
2022/08/27 12:30:39;;;;;;;6.00;5.50;;;24.30;1.00;;;;;;5088714;28;20263;-57
2022/08/27 12:33:26;;;;;;;7.53;6.93;;;24.20;1.00;;;;;;5090700;28;20431;-58
2022/08/27 12:35:55;;;;;;;6.67;6.13;;;24.30;1.00;;;;;;5088346;28;20551;-57
2022/08/27 12:38:53;;;;;;;6.93;6.33;;;24.20;1.00;;;;;;5090571;28;20777;-56
2022/08/27 12:41:28;;;;;;;6.30;5.70;;;24.00;1.00;;;;;;5090412;28;20939;-58
2022/08/27 12:44:06;;;;;;;7.90;7.20;;;23.60;1.00;;;;;;5089609;28;20447;-55
2022/08/27 12:46:35;;;;;;;7.47;6.87;;;23.60;1.00;;;;;;5088824;28;20417;-57
2022/08/27 12:49:03;;;;;;;8.03;7.20;;;23.60;1.00;;;;;;5088433;28;20895;-57
2022/08/27 12:51:32;;;;;;;7.60;7.00;;;23.40;1.00;;;;;;5089677;28;20436;-57
2022/08/27 12:54:20;;;;;;;7.77;7.13;;;23.40;1.00;;;;;;5087542;28;20972;-58
2022/08/27 12:57:15;;;;;;;8.17;7.43;;;23.50;1.00;;;;;;5089524;28;20414;-56
2022/08/27 13:00:07;;;;;;;8.27;7.67;;;23.50;1.00;;;;;;5087938;28;20462;-58
2022/08/27 13:03:03;;;;;;;7.87;7.13;;;23.60;1.00;;;;;;5087274;28;20441;-56
2022/08/27 13:05:37;;;;;;;7.53;6.93;;;23.70;1.00;;;;;;5089874;28;20407;-56
2022/08/27 13:08:03;;;;;;;8.80;7.10;;;23.90;1.00;;;;;;5087412;28;20800;-58
2022/08/27 13:10:30;;;;;;;9.27;8.47;;;23.90;1.00;;;;;;5088494;28;20440;-56
2022/08/27 13:13:18;;;;;;;8.70;7.97;;;23.70;1.00;;;;;;5089103;28;20194;-57
2022/08/27 13:15:48;;;;;;;8.17;7.47;;;23.60;1.00;;;;;;5086743;28;21050;-57
2022/08/27 13:18:15;;;;;;;8.03;7.33;;;23.60;1.00;;;;;;5093051;28;20415;-57